createdAt,value
2017-06-06T02:38:39.297Z,99.99
2017-06-06T02:39:19.841Z,99.99
2017-06-06T02:40:00.377Z,99.99
2017-06-06T02:40:40.926Z,99.99
2017-06-06T02:41:21.461Z,99.99
2017-06-06T02:42:01.993Z,99.99
2017-06-06T02:42:42.528Z,99.99
2017-06-06T02:43:23.069Z,99.99
2017-06-06T02:44:03.603Z,99.99
2017-06-06T02:44:44.149Z,99.99
2017-06-06T02:45:24.682Z,99.99
2017-06-06T02:46:05.223Z,99.99
2017-06-06T02:46:45.764Z,99.99
2017-06-06T02:47:26.302Z,99.99
2017-06-06T02:48:06.844Z,99.99
2017-06-06T02:48:47.378Z,99.99
2017-06-06T02:49:27.920Z,99.99
2017-06-06T02:50:08.460Z,99.99
2017-06-06T02:50:49.001Z,99.99
2017-06-06T02:51:29.547Z,99.99
2017-06-06T02:52:10.089Z,99.99
2017-06-06T02:52:50.629Z,99.99
2017-06-06T02:53:31.171Z,99.99
2017-06-06T02:54:11.710Z,99.99
2017-06-06T02:54:52.250Z,99.99
2017-06-06T02:55:32.788Z,99.99
2017-06-06T02:56:13.344Z,99.99
2017-06-06T02:56:53.863Z,99.99
2017-06-06T02:57:34.388Z,99.99
2017-06-06T02:58:14.928Z,99.99
2017-06-06T02:58:55.473Z,99.99
2017-06-06T02:59:36.017Z,99.99
2017-06-06T03:00:16.561Z,99.99
2017-06-06T03:00:57.092Z,99.99
2017-06-06T03:01:37.643Z,99.99
2017-06-06T03:02:18.181Z,99.99
2017-06-06T03:02:58.724Z,99.99
2017-06-06T03:03:39.250Z,99.99
2017-06-06T03:04:19.798Z,99.99
2017-06-06T03:05:00.338Z,99.99
2017-06-06T03:05:40.879Z,99.99
2017-06-06T03:06:21.424Z,99.99
2017-06-06T03:07:01.961Z,99.99
2017-06-06T03:07:42.497Z,99.99
2017-06-06T03:08:23.045Z,99.99
2017-06-06T03:09:03.586Z,99.99
2017-06-06T03:09:44.124Z,99.99
2017-06-06T03:10:24.667Z,99.99
2017-06-06T03:11:05.205Z,99.99
2017-06-06T03:11:45.744Z,99.99
2017-06-06T03:12:26.288Z,99.99
2017-06-06T03:13:06.822Z,99.99
2017-06-06T03:13:47.363Z,99.99
2017-06-06T03:14:27.908Z,99.99
2017-06-06T03:15:08.453Z,99.99
2017-06-06T03:15:48.993Z,99.99
2017-06-06T03:16:29.531Z,99.99
2017-06-06T03:17:10.078Z,99.99
2017-06-06T03:17:50.615Z,99.99
2017-06-06T03:18:31.161Z,99.99
2017-06-06T03:19:11.698Z,99.99
2017-06-06T03:19:52.266Z,99.99
2017-06-06T03:20:32.776Z,99.99
2017-06-06T03:21:13.312Z,99.99
2017-06-06T03:21:53.892Z,99.99
2017-06-06T03:22:34.454Z,99.99
2017-06-06T03:23:14.998Z,99.99
2017-06-06T03:23:55.543Z,99.99
2017-06-06T03:24:36.094Z,99.99
2017-06-06T03:25:16.731Z,99.99
2017-06-06T03:25:57.274Z,99.99
2017-06-06T03:26:37.815Z,99.99
2017-06-06T03:27:18.360Z,99.99
2017-06-06T03:27:58.900Z,99.99
2017-06-06T03:28:39.507Z,99.99
2017-06-06T03:29:20.049Z,99.99
2017-06-06T03:30:00.602Z,99.99
2017-06-06T03:30:41.160Z,99.99
2017-06-06T03:31:21.735Z,99.99
2017-06-06T03:32:02.251Z,99.99
2017-06-06T03:32:42.800Z,99.99
2017-06-06T03:33:23.341Z,99.99
2017-06-06T03:34:03.883Z,99.99
2017-06-06T03:34:44.434Z,99.99
2017-06-06T03:35:24.978Z,99.99
2017-06-06T03:36:05.531Z,99.99
2017-06-06T03:36:46.061Z,99.99
2017-06-06T03:37:26.693Z,99.99
2017-06-06T03:38:07.205Z,99.99
2017-06-06T03:38:47.747Z,99.99
2017-06-06T03:39:28.277Z,99.99
2017-06-06T03:40:08.811Z,99.99
2017-06-06T03:40:49.350Z,99.99
2017-06-06T03:41:29.903Z,99.99
2017-06-06T03:42:10.430Z,99.99
2017-06-06T03:42:50.973Z,99.99
2017-06-06T03:43:31.517Z,99.99
2017-06-06T03:44:12.062Z,99.99
2017-06-06T03:44:52.605Z,99.99
2017-06-06T03:45:33.147Z,99.99
2017-06-06T03:46:13.681Z,99.99
2017-06-06T03:46:54.248Z,99.99
2017-06-06T03:47:34.779Z,99.99
2017-06-06T03:48:15.308Z,99.99
2017-06-06T03:48:55.856Z,99.99
2017-06-06T03:49:36.382Z,99.99
2017-06-06T03:50:16.933Z,99.99
2017-06-06T03:50:57.476Z,99.99
2017-06-06T03:51:38.125Z,99.99
2017-06-06T03:52:18.657Z,99.99
2017-06-06T03:52:59.217Z,99.99
2017-06-06T03:53:39.760Z,99.99
2017-06-06T03:54:20.295Z,99.99
2017-06-06T03:55:00.813Z,99.99
2017-06-06T03:55:41.351Z,99.99
2017-06-06T03:56:21.897Z,99.99
2017-06-06T03:57:02.423Z,99.99
2017-06-06T03:57:42.970Z,99.99
2017-06-06T03:58:23.544Z,99.99
2017-06-06T03:59:04.095Z,99.99
2017-06-06T03:59:44.637Z,99.99
2017-06-06T04:00:25.183Z,99.99
2017-06-06T04:01:05.725Z,99.99
2017-06-06T04:01:46.265Z,99.99
2017-06-06T04:02:26.849Z,99.99
2017-06-06T04:03:07.396Z,99.99
2017-06-06T04:03:47.950Z,99.99
2017-06-06T04:04:28.491Z,99.99
2017-06-06T04:05:09.028Z,99.99
2017-06-06T04:05:49.556Z,99.99
2017-06-06T04:06:30.097Z,99.99
2017-06-06T04:07:10.633Z,99.99
2017-06-06T04:07:51.167Z,99.99
2017-06-06T04:08:31.700Z,99.99
2017-06-06T04:09:12.245Z,99.99
2017-06-06T04:09:52.797Z,99.99
2017-06-06T04:10:33.342Z,99.99
2017-06-06T04:11:13.896Z,99.99
2017-06-06T04:11:54.449Z,99.99
2017-06-06T04:12:34.995Z,99.99
2017-06-06T04:13:15.561Z,99.99
2017-06-06T04:13:56.101Z,99.99
2017-06-06T04:14:36.647Z,99.99
2017-06-06T04:15:17.200Z,99.99
2017-06-06T04:15:57.741Z,99.99
2017-06-06T04:16:38.289Z,99.99
2017-06-06T04:17:18.833Z,99.99
2017-06-06T04:17:59.379Z,99.99
2017-06-06T04:18:39.921Z,99.99
2017-06-06T04:19:20.460Z,99.99
2017-06-06T04:20:01.001Z,99.99
2017-06-06T04:20:41.546Z,99.99
2017-06-06T04:21:22.117Z,99.99
2017-06-06T04:22:02.666Z,99.99
2017-06-06T04:22:43.192Z,99.99
2017-06-06T04:23:23.727Z,99.99
2017-06-06T04:24:04.269Z,99.99
2017-06-06T04:24:44.805Z,99.99
2017-06-06T04:25:25.352Z,99.99
2017-06-06T04:26:05.885Z,99.99
2017-06-06T04:26:46.420Z,99.99
2017-06-06T04:27:26.960Z,99.99
2017-06-06T04:28:07.496Z,99.99
2017-06-06T04:28:48.037Z,99.99
2017-06-06T04:29:28.580Z,99.99
2017-06-06T04:30:09.118Z,99.99
2017-06-06T04:30:49.662Z,99.99
2017-06-06T04:31:30.204Z,99.99
2017-06-06T04:32:10.751Z,99.99
2017-06-06T04:32:51.307Z,99.99
2017-06-06T04:33:31.850Z,99.99
2017-06-06T04:34:12.394Z,99.99
2017-06-06T04:34:52.927Z,99.99
2017-06-06T04:35:33.490Z,99.99
2017-06-06T04:36:14.028Z,99.99
2017-06-06T04:36:54.561Z,99.99
2017-06-06T04:37:35.106Z,99.99
2017-06-06T04:38:15.648Z,99.99
2017-06-06T04:38:56.189Z,99.99
2017-06-06T04:39:36.736Z,99.99
2017-06-06T04:40:17.276Z,99.99
2017-06-06T04:40:57.817Z,99.99
2017-06-06T04:41:38.359Z,99.99
2017-06-06T04:42:18.893Z,99.99
2017-06-06T04:42:59.433Z,99.99
2017-06-06T04:43:39.973Z,99.99
2017-06-06T04:44:20.512Z,99.99
2017-06-06T04:45:01.057Z,99.99
2017-06-06T04:45:41.595Z,99.99
2017-06-06T04:46:22.143Z,99.99
2017-06-06T04:47:02.688Z,99.99
2017-06-06T04:47:43.239Z,99.99
2017-06-06T04:48:23.788Z,99.99
2017-06-06T04:49:04.323Z,99.99
2017-06-06T04:49:44.855Z,99.99
2017-06-06T04:50:25.397Z,99.99
2017-06-06T04:51:05.923Z,99.99
2017-06-06T04:51:46.471Z,99.99
2017-06-06T04:52:27.013Z,99.99
2017-06-06T04:53:07.555Z,99.99
2017-06-06T04:53:48.092Z,99.99
2017-06-06T04:54:28.629Z,99.99
2017-06-06T04:55:09.169Z,99.99
2017-06-06T04:55:49.701Z,99.99
2017-06-06T04:56:30.234Z,99.99
2017-06-06T04:57:10.773Z,99.99
2017-06-06T04:57:51.313Z,99.99
2017-06-06T04:58:31.856Z,99.99
2017-06-06T04:59:12.395Z,99.99
2017-06-06T04:59:52.933Z,99.99
2017-06-06T05:00:33.465Z,99.99
2017-06-06T05:01:13.998Z,99.99
2017-06-06T05:01:54.534Z,99.99
2017-06-06T05:02:35.060Z,99.99
2017-06-06T05:03:15.610Z,99.99
2017-06-06T05:03:56.152Z,99.99
2017-06-06T05:04:36.703Z,99.99
2017-06-06T05:05:17.247Z,99.99
2017-06-06T05:05:57.799Z,99.99
2017-06-06T05:06:38.341Z,99.99
2017-06-06T05:07:18.881Z,99.99
2017-06-06T05:07:59.415Z,99.99
2017-06-06T05:08:39.960Z,99.99
2017-06-06T05:09:20.488Z,99.99
2017-06-06T05:10:01.035Z,99.99
2017-06-06T05:10:41.573Z,99.99
2017-06-06T05:11:22.115Z,99.99
2017-06-06T05:12:02.650Z,99.99
2017-06-06T05:12:43.218Z,99.99
2017-06-06T05:13:23.771Z,99.99
2017-06-06T05:14:04.335Z,99.99
2017-06-06T05:14:44.851Z,99.99
2017-06-06T05:15:25.488Z,99.99
2017-06-06T05:16:06.026Z,99.99
2017-06-06T05:16:46.743Z,99.99
2017-06-06T05:17:27.282Z,99.99
2017-06-06T05:18:07.820Z,99.99
2017-06-06T05:18:48.685Z,99.99
2017-06-06T05:19:29.228Z,99.99
2017-06-06T05:20:09.768Z,99.99
2017-06-06T05:20:50.332Z,99.99
2017-06-06T05:21:30.872Z,99.99
2017-06-06T05:22:11.413Z,99.99
2017-06-06T05:22:51.940Z,99.99
2017-06-06T05:23:32.477Z,99.99
2017-06-06T05:24:13.030Z,99.99
2017-06-06T05:24:53.559Z,99.99
2017-06-06T05:25:34.096Z,99.99
2017-06-06T05:26:14.646Z,99.99
2017-06-06T05:26:55.200Z,99.99
2017-06-06T05:27:35.725Z,99.99
2017-06-06T05:28:16.263Z,99.99
2017-06-06T05:28:56.805Z,99.99
2017-06-06T05:29:37.345Z,99.99
2017-06-06T05:30:17.893Z,99.99
2017-06-06T05:30:58.436Z,99.99
2017-06-06T05:31:38.975Z,99.99
2017-06-06T05:32:19.517Z,99.99
2017-06-06T05:33:00.058Z,99.99
2017-06-06T05:33:40.604Z,99.99
2017-06-06T05:34:21.146Z,99.99
2017-06-06T05:35:01.688Z,99.99
2017-06-06T05:35:42.233Z,99.99
2017-06-06T05:36:22.778Z,99.99
2017-06-06T05:37:03.313Z,99.99
2017-06-06T05:37:43.861Z,99.99
2017-06-06T05:38:24.402Z,99.99
2017-06-06T05:39:04.966Z,99.99
2017-06-06T05:39:45.480Z,99.99
2017-06-06T05:40:26.030Z,99.99
2017-06-06T05:41:06.570Z,99.99
2017-06-06T05:41:47.097Z,99.99
2017-06-06T05:42:27.638Z,99.99
2017-06-06T05:43:08.221Z,99.99
2017-06-06T05:43:48.765Z,99.99
2017-06-06T05:44:29.332Z,99.99
2017-06-06T05:45:09.857Z,99.99
2017-06-06T05:45:50.403Z,99.99
2017-06-06T05:46:30.945Z,99.99
2017-06-06T05:47:11.490Z,99.99
2017-06-06T05:47:52.036Z,99.99
2017-06-06T05:48:32.865Z,99.99
2017-06-06T05:49:13.555Z,99.99
2017-06-06T05:49:54.113Z,99.99
2017-06-06T05:50:34.661Z,99.99
2017-06-06T05:51:15.203Z,99.99
2017-06-06T05:51:55.748Z,99.99
2017-06-06T05:52:36.280Z,99.99
2017-06-06T05:53:16.807Z,99.99
2017-06-06T05:53:57.364Z,99.99
2017-06-06T05:54:37.898Z,99.99
2017-06-06T05:55:18.438Z,99.99
2017-06-06T05:55:58.986Z,99.99
2017-06-06T05:56:39.533Z,99.99
2017-06-06T05:57:20.079Z,99.99
2017-06-06T05:58:00.617Z,99.99
2017-06-06T05:58:41.162Z,99.99
2017-06-06T05:59:21.709Z,99.99
2017-06-06T06:00:02.254Z,99.99
2017-06-06T06:00:42.786Z,99.99
2017-06-06T06:01:23.324Z,99.99
2017-06-06T06:02:03.871Z,99.99
2017-06-06T06:02:44.409Z,99.99
2017-06-06T06:03:24.971Z,99.99
2017-06-06T06:04:05.517Z,99.99
2017-06-06T06:04:46.062Z,99.99
2017-06-06T06:05:26.604Z,99.99
2017-06-06T06:06:07.145Z,99.99
2017-06-06T06:06:47.669Z,99.99
2017-06-06T06:07:28.221Z,99.99
2017-06-06T06:08:08.794Z,99.99
2017-06-06T06:08:49.286Z,99.99
2017-06-06T06:09:29.824Z,99.99
2017-06-06T06:10:10.373Z,99.99
2017-06-06T06:10:50.903Z,99.99
2017-06-06T06:11:31.446Z,99.99
2017-06-06T06:12:11.997Z,99.99
2017-06-06T06:12:52.546Z,99.99
2017-06-06T06:13:33.099Z,99.99
2017-06-06T06:14:13.640Z,99.99
2017-06-06T06:14:54.184Z,99.99
2017-06-06T06:15:34.730Z,99.99
2017-06-06T06:16:15.277Z,99.99
2017-06-06T06:16:55.812Z,99.99
2017-06-06T06:17:36.348Z,99.99
2017-06-06T06:18:16.882Z,99.99
2017-06-06T06:18:57.436Z,99.99
2017-06-06T06:19:37.986Z,99.99
2017-06-06T06:20:18.526Z,99.99
2017-06-06T06:20:59.070Z,99.99
2017-06-06T06:21:39.616Z,99.99
2017-06-06T06:22:20.156Z,99.99
2017-06-06T06:23:00.693Z,99.99
2017-06-06T06:23:41.248Z,99.99
2017-06-06T06:24:21.796Z,99.99
2017-06-06T06:25:02.346Z,99.99
2017-06-06T06:25:42.889Z,99.99
2017-06-06T06:26:23.435Z,99.99
2017-06-06T06:27:03.985Z,99.99
2017-06-06T06:27:44.531Z,99.99
2017-06-06T06:28:25.062Z,99.99
2017-06-06T06:29:05.626Z,99.99
2017-06-06T06:29:46.150Z,99.99
2017-06-06T06:30:26.675Z,99.99
2017-06-06T06:31:07.219Z,99.99
2017-06-06T06:31:47.762Z,99.99
2017-06-06T06:32:30.296Z,99.99
2017-06-06T06:33:12.850Z,99.99
2017-06-06T06:33:53.386Z,99.99
2017-06-06T06:34:33.940Z,99.99
2017-06-06T06:35:14.446Z,99.99
2017-06-06T06:35:54.978Z,99.99
2017-06-06T06:36:35.538Z,99.99
2017-06-06T06:37:16.085Z,99.99
2017-06-06T06:37:56.629Z,99.99
2017-06-06T06:38:37.197Z,99.99
2017-06-06T06:39:17.754Z,99.99
2017-06-06T06:40:01.398Z,99.99
2017-06-06T06:40:45.650Z,99.99
2017-06-06T06:41:36.936Z,99.99
2017-06-06T06:42:23.318Z,99.99
2017-06-06T06:43:06.013Z,99.99
2017-06-06T06:43:48.853Z,99.99
2017-06-06T06:44:31.661Z,99.99
2017-06-06T06:45:13.004Z,99.99
2017-06-06T06:46:02.339Z,99.99
2017-06-06T06:46:45.740Z,99.99
2017-06-06T06:47:27.387Z,99.99
2017-06-06T06:48:10.706Z,99.99
2017-06-06T06:48:54.222Z,99.99
2017-06-06T06:49:36.209Z,99.99
2017-06-06T06:50:18.650Z,99.99
2017-06-06T06:51:01.008Z,99.99
2017-06-06T06:51:42.985Z,99.99
2017-06-06T06:52:24.891Z,99.99
2017-06-06T06:53:07.279Z,99.99
2017-06-06T06:53:49.310Z,99.99
2017-06-06T06:54:30.811Z,99.99
2017-06-06T06:55:12.972Z,99.99
2017-06-06T06:55:55.029Z,99.99
2017-06-06T06:56:37.096Z,99.99
2017-06-06T06:57:18.813Z,99.99
2017-06-06T06:58:00.607Z,99.99
2017-06-06T06:58:43.440Z,99.99
2017-06-06T06:59:25.812Z,99.99
2017-06-06T07:00:08.015Z,99.99
2017-06-06T07:00:50.293Z,99.99
2017-06-06T07:01:32.537Z,99.99
2017-06-06T07:02:15.130Z,99.99
2017-06-06T07:02:57.073Z,99.99
2017-06-06T07:03:39.171Z,99.99
2017-06-06T07:04:21.174Z,99.99
2017-06-06T07:05:03.413Z,99.99
2017-06-06T07:05:47.182Z,99.99
2017-06-06T07:06:33.586Z,99.99
2017-06-06T07:07:18.255Z,99.99
2017-06-06T07:08:10.133Z,99.99
2017-06-06T07:08:52.116Z,99.99
2017-06-06T07:09:34.437Z,99.99
2017-06-06T07:10:16.873Z,99.99
2017-06-06T07:10:58.304Z,99.99
2017-06-06T07:11:41.454Z,99.99
2017-06-06T07:12:23.877Z,99.99
2017-06-06T07:13:05.851Z,99.99
2017-06-06T07:13:48.615Z,99.99
2017-06-06T07:14:30.735Z,99.99
2017-06-06T07:15:13.389Z,99.99
2017-06-06T07:17:30.077Z,99.99
2017-06-06T07:18:11.989Z,99.99
2017-06-06T07:18:53.878Z,99.99
2017-06-06T07:19:36.002Z,99.99
2017-06-06T07:20:18.371Z,99.99
2017-06-06T07:21:00.827Z,99.99
2017-06-06T07:21:43.399Z,99.99
2017-06-06T07:22:26.137Z,99.99
2017-06-06T07:23:08.684Z,99.99
2017-06-06T07:23:51.021Z,99.99
2017-06-06T07:24:33.593Z,99.99
2017-06-06T07:25:15.383Z,99.99
2017-06-06T07:25:55.932Z,99.99
2017-06-06T07:26:36.469Z,99.99
2017-06-06T07:27:17.007Z,99.99
2017-06-06T07:27:57.547Z,99.99
2017-06-06T07:28:38.072Z,99.99
2017-06-06T07:29:18.606Z,99.99
2017-06-06T07:29:59.145Z,99.99
2017-06-06T07:30:39.690Z,99.99
2017-06-06T07:31:20.236Z,99.99
2017-06-06T07:32:00.779Z,99.99
2017-06-06T07:32:41.328Z,99.99
2017-06-06T07:33:21.870Z,99.99
2017-06-06T07:34:02.400Z,99.99
2017-06-06T07:34:42.927Z,99.99
2017-06-06T07:35:23.476Z,99.99
2017-06-06T07:36:04.016Z,99.99
2017-06-06T07:36:44.555Z,99.99
2017-06-06T07:37:25.093Z,99.99
2017-06-06T07:38:05.619Z,99.99
2017-06-06T07:38:46.151Z,99.99
2017-06-06T07:39:26.694Z,99.99
2017-06-06T07:40:07.238Z,99.99
2017-06-06T07:40:47.781Z,99.99
2017-06-06T07:41:28.335Z,99.99
2017-06-06T07:42:08.861Z,99.99
2017-06-06T07:42:49.405Z,99.99
2017-06-06T07:43:29.947Z,99.99
2017-06-06T07:44:10.490Z,99.99
2017-06-06T07:44:51.039Z,99.99
2017-06-06T07:45:31.580Z,99.99
2017-06-06T07:46:12.117Z,99.99
2017-06-06T07:46:52.651Z,99.99
2017-06-06T07:47:33.191Z,99.99
2017-06-06T07:48:13.725Z,99.99
2017-06-06T07:48:54.276Z,99.99
2017-06-06T07:49:34.820Z,99.99
2017-06-06T07:50:15.366Z,99.99
2017-06-06T07:50:55.921Z,99.99
2017-06-06T07:51:36.463Z,99.99
2017-06-06T07:52:17.009Z,99.99
2017-06-06T07:52:57.553Z,99.99
2017-06-06T07:53:38.069Z,99.99
2017-06-06T07:54:18.614Z,99.99
2017-06-06T07:54:59.155Z,99.99
2017-06-06T07:55:39.702Z,99.99
2017-06-06T07:56:20.223Z,99.99
2017-06-06T07:57:00.774Z,99.99
2017-06-06T07:57:41.317Z,99.99
2017-06-06T07:58:21.867Z,99.99
2017-06-06T07:59:02.416Z,99.99
2017-06-06T07:59:42.956Z,99.99
2017-06-06T08:00:23.498Z,99.99
2017-06-06T08:01:04.046Z,99.99
2017-06-06T08:01:44.587Z,99.99
2017-06-06T08:02:25.106Z,99.99
2017-06-06T08:03:05.651Z,99.99
2017-06-06T08:03:46.190Z,99.99
2017-06-06T08:04:26.735Z,99.99
2017-06-06T08:05:07.274Z,99.99
2017-06-06T08:05:47.812Z,99.99
2017-06-06T08:06:28.354Z,99.99
2017-06-06T08:07:08.882Z,99.99
2017-06-06T08:07:49.481Z,99.99
2017-06-06T08:08:30.023Z,99.99
2017-06-06T08:09:10.564Z,99.99
2017-06-06T08:09:51.105Z,99.99
2017-06-06T08:10:31.654Z,99.99
2017-06-06T08:11:12.195Z,99.99
2017-06-06T08:11:52.733Z,99.99
2017-06-06T08:12:33.263Z,99.99
2017-06-06T08:13:13.803Z,99.99
2017-06-06T08:13:54.343Z,99.99
2017-06-06T08:14:34.884Z,99.99
2017-06-06T08:15:15.434Z,99.99
2017-06-06T08:15:55.981Z,99.99
2017-06-06T08:16:36.522Z,99.99
2017-06-06T08:17:17.064Z,99.99
2017-06-06T08:17:57.611Z,99.99
2017-06-06T08:18:38.144Z,99.99
2017-06-06T08:19:18.690Z,99.99
2017-06-06T08:19:59.220Z,99.99
2017-06-06T08:20:39.761Z,99.99
2017-06-06T08:21:20.303Z,99.99
2017-06-06T08:22:00.854Z,99.99
2017-06-06T08:22:41.401Z,99.99
2017-06-06T08:23:21.944Z,99.99
2017-06-06T08:24:02.481Z,99.99
2017-06-06T08:24:43.023Z,99.99
2017-06-06T08:25:23.571Z,99.99
2017-06-06T08:26:04.098Z,99.99
2017-06-06T08:26:44.883Z,99.99
2017-06-06T08:27:25.380Z,99.99
2017-06-06T08:28:05.932Z,99.99
2017-06-06T08:28:46.472Z,99.99
2017-06-06T08:29:26.999Z,99.99
2017-06-06T08:30:07.550Z,99.99
2017-06-06T08:30:48.069Z,99.99
2017-06-06T08:31:28.625Z,99.99
2017-06-06T08:32:09.140Z,99.99
2017-06-06T08:32:49.668Z,99.99
2017-06-06T08:33:30.206Z,99.99
2017-06-06T08:34:10.742Z,99.99
2017-06-06T08:34:51.285Z,99.99
2017-06-06T08:35:31.835Z,99.99
2017-06-06T08:36:12.350Z,99.99
2017-06-06T08:36:52.893Z,99.99
2017-06-06T08:37:33.430Z,99.99
2017-06-06T08:38:13.970Z,99.99
2017-06-06T08:38:54.507Z,99.99
2017-06-06T08:39:35.049Z,99.99
2017-06-06T08:40:15.585Z,99.99
2017-06-06T08:40:56.130Z,99.99
2017-06-06T08:41:36.671Z,99.99
2017-06-06T08:42:17.217Z,99.99
2017-06-06T08:42:57.759Z,99.99
2017-06-06T08:43:38.299Z,99.99
2017-06-06T08:44:18.828Z,99.99
2017-06-06T08:44:59.368Z,99.99
2017-06-06T08:45:39.904Z,99.99
2017-06-06T08:46:20.446Z,99.99
2017-06-06T08:47:00.988Z,99.99
2017-06-06T08:47:41.503Z,99.99
2017-06-06T08:48:22.039Z,99.99
2017-06-06T08:49:02.575Z,99.99
2017-06-06T08:49:43.123Z,99.99
2017-06-06T08:50:23.643Z,99.99
2017-06-06T08:51:04.172Z,99.99
2017-06-06T08:51:44.685Z,99.99
2017-06-06T08:52:25.231Z,99.99
2017-06-06T08:53:05.767Z,99.99
2017-06-06T08:53:47.822Z,99.99
2017-06-06T08:54:28.384Z,99.99
2017-06-06T08:55:08.928Z,99.99
2017-06-06T08:55:49.474Z,99.99
2017-06-06T08:56:30.013Z,99.99
2017-06-06T08:57:10.555Z,99.99
2017-06-06T08:57:51.076Z,99.99
2017-06-06T08:58:31.622Z,99.99
2017-06-06T08:59:12.226Z,99.99
2017-06-06T08:59:52.766Z,99.99
2017-06-06T09:00:33.313Z,99.99
2017-06-06T09:01:13.930Z,99.99
2017-06-06T09:01:54.470Z,99.99
2017-06-06T09:02:35.009Z,99.99
2017-06-06T09:03:15.557Z,99.99
2017-06-06T09:03:56.126Z,99.99
2017-06-06T09:04:36.668Z,99.99
2017-06-06T09:05:17.208Z,99.99
2017-06-06T09:05:57.746Z,99.99
2017-06-06T09:06:38.294Z,99.99
2017-06-06T09:07:18.810Z,99.99
2017-06-06T09:07:59.370Z,99.99
2017-06-06T09:08:39.886Z,99.99
2017-06-06T09:09:20.421Z,99.99
2017-06-06T09:10:01.022Z,99.99
2017-06-06T09:10:41.553Z,99.99
2017-06-06T09:11:22.088Z,99.99
2017-06-06T09:12:02.649Z,99.99
2017-06-06T09:12:43.227Z,99.99
2017-06-06T09:13:23.764Z,99.99
2017-06-06T09:14:04.298Z,99.99
2017-06-06T09:14:44.838Z,99.99
2017-06-06T09:15:25.381Z,99.99
2017-06-06T09:16:05.924Z,99.99
2017-06-06T09:16:46.475Z,99.99
2017-06-06T09:17:27.047Z,99.99
2017-06-06T09:18:07.628Z,99.99
2017-06-06T09:18:48.193Z,99.99
2017-06-06T09:19:28.763Z,99.99
2017-06-06T09:20:09.275Z,99.99
2017-06-06T09:20:49.807Z,99.99
2017-06-06T09:21:30.351Z,99.99
2017-06-06T09:22:10.884Z,99.99
2017-06-06T09:22:51.431Z,99.99
2017-06-06T09:23:31.965Z,99.99
2017-06-06T09:24:12.492Z,99.99
2017-06-06T09:24:53.030Z,99.99
2017-06-06T09:25:33.576Z,99.99
2017-06-06T09:26:14.107Z,99.99
2017-06-06T09:26:54.659Z,99.99
2017-06-06T09:27:35.200Z,99.99
2017-06-06T09:28:15.747Z,99.99
2017-06-06T09:28:56.288Z,99.99
2017-06-06T09:29:36.816Z,99.99
2017-06-06T09:30:17.354Z,99.99
2017-06-06T09:30:57.885Z,99.99
2017-06-06T09:31:38.424Z,99.99
2017-06-06T09:32:18.990Z,99.99
2017-06-06T09:32:59.536Z,99.99
2017-06-06T09:33:40.088Z,99.99
2017-06-06T09:34:20.621Z,99.99
2017-06-06T09:35:01.175Z,99.99
2017-06-06T09:35:41.716Z,99.99
2017-06-06T09:36:22.262Z,99.99
2017-06-06T09:37:02.821Z,99.99
2017-06-06T09:37:43.363Z,99.99
2017-06-06T09:38:23.915Z,99.99
2017-06-06T09:39:04.472Z,99.99
2017-06-06T09:39:45.018Z,99.99
2017-06-06T09:40:25.553Z,99.99
2017-06-06T09:41:06.093Z,99.99
2017-06-06T09:41:46.638Z,99.99
2017-06-06T09:42:27.159Z,99.99
2017-06-06T09:43:07.698Z,99.99
2017-06-06T09:43:48.255Z,99.99
2017-06-06T09:44:28.781Z,99.99
2017-06-06T09:45:09.331Z,99.99
2017-06-06T09:45:49.881Z,99.99
2017-06-06T09:46:30.432Z,99.99
2017-06-06T09:47:10.969Z,99.99
2017-06-06T09:47:51.510Z,99.99
2017-06-06T09:48:32.050Z,99.99
2017-06-06T09:49:12.600Z,99.99
2017-06-06T09:49:53.193Z,99.99
2017-06-06T09:50:33.654Z,99.99
2017-06-06T09:51:14.195Z,99.99
2017-06-06T09:51:54.737Z,99.99
2017-06-06T09:52:35.274Z,99.99
2017-06-06T09:53:15.822Z,99.99
2017-06-06T09:53:56.386Z,99.99
2017-06-06T09:54:36.940Z,99.99
2017-06-06T09:55:17.489Z,99.99
2017-06-06T09:55:58.042Z,99.99
2017-06-06T09:56:38.590Z,99.99
2017-06-06T09:57:19.132Z,99.99
2017-06-06T09:58:17.909Z,99.99
2017-06-06T09:58:58.454Z,99.99
2017-06-06T09:59:38.976Z,99.99
2017-06-06T10:00:19.494Z,99.99
2017-06-06T10:01:00.051Z,99.99
2017-06-06T10:01:40.577Z,99.99
2017-06-06T10:02:21.111Z,99.99
2017-06-06T10:03:01.650Z,99.99
2017-06-06T10:03:42.202Z,99.99
2017-06-06T10:04:22.737Z,99.99
2017-06-06T10:05:03.309Z,99.99
2017-06-06T10:05:43.854Z,99.99
2017-06-06T10:06:24.400Z,99.99
2017-06-06T10:07:05.728Z,99.99
2017-06-06T10:07:48.563Z,99.99
2017-06-06T10:08:30.716Z,99.99
2017-06-06T10:09:12.664Z,99.99
2017-06-06T10:09:54.598Z,99.99
2017-06-06T10:10:36.879Z,99.99
2017-06-06T10:11:25.632Z,99.99
2017-06-06T10:13:15.406Z,99.99
2017-06-06T10:13:57.882Z,99.99
2017-06-06T10:14:39.743Z,99.99
2017-06-06T10:15:22.364Z,99.99
2017-06-06T10:16:04.670Z,99.99
2017-06-06T10:16:47.481Z,99.99
2017-06-06T10:18:42.675Z,99.99
2017-06-06T10:19:25.554Z,99.99
2017-06-06T10:20:07.522Z,99.99
2017-06-06T10:20:50.193Z,99.99
2017-06-06T10:21:32.618Z,99.99
2017-06-06T10:22:14.952Z,99.99
2017-06-06T10:22:56.172Z,99.99
2017-06-06T10:23:41.664Z,99.99
2017-06-06T10:24:33.590Z,99.99
2017-06-06T10:25:16.048Z,99.99
2017-06-06T10:25:58.326Z,99.99
2017-06-06T10:26:40.197Z,99.99
2017-06-06T10:27:22.561Z,99.99
2017-06-06T10:28:16.131Z,99.99
2017-06-06T10:28:58.330Z,99.99
2017-06-06T10:29:40.191Z,99.99
2017-06-06T10:30:22.426Z,99.99
2017-06-06T10:31:04.394Z,99.99
2017-06-06T10:31:46.721Z,99.99
2017-06-06T10:32:28.941Z,99.99
2017-06-06T10:33:09.476Z,99.99
2017-06-06T10:33:50.022Z,99.99
2017-06-06T10:34:30.570Z,99.99
2017-06-06T10:35:11.110Z,99.99
2017-06-06T10:35:51.647Z,99.99
2017-06-06T10:36:32.167Z,99.99
2017-06-06T10:37:12.707Z,99.99
2017-06-06T10:37:53.234Z,99.99
2017-06-06T10:38:33.771Z,99.99
2017-06-06T10:39:14.314Z,99.99
2017-06-06T10:39:54.864Z,99.99
2017-06-06T10:40:35.415Z,99.99
2017-06-06T10:41:15.984Z,99.99
2017-06-06T10:41:56.491Z,99.99
2017-06-06T10:42:37.041Z,99.99
2017-06-06T10:43:17.590Z,99.99
2017-06-06T10:43:58.123Z,99.99
2017-06-06T10:44:38.661Z,99.99
2017-06-06T10:45:19.201Z,99.99
2017-06-06T10:45:59.736Z,99.99
2017-06-06T10:46:40.277Z,99.99
2017-06-06T10:47:20.832Z,99.99
2017-06-06T10:48:01.369Z,99.99
2017-06-06T10:48:41.901Z,99.99
2017-06-06T10:49:22.431Z,99.99
2017-06-06T10:50:02.985Z,99.99
2017-06-06T10:50:43.529Z,99.99
2017-06-06T10:51:24.075Z,99.99
2017-06-06T10:52:04.621Z,99.99
2017-06-06T10:52:45.157Z,99.99
2017-06-06T10:53:25.691Z,99.99
2017-06-06T10:54:06.237Z,99.99
2017-06-06T10:54:46.789Z,99.99
2017-06-06T10:55:27.333Z,99.99
2017-06-06T10:56:07.879Z,99.99
2017-06-06T10:56:48.425Z,99.99
2017-06-06T10:57:28.975Z,99.99
2017-06-06T10:58:09.527Z,99.99
2017-06-06T10:58:50.073Z,99.99
2017-06-06T10:59:30.620Z,99.99
2017-06-06T11:00:11.162Z,99.99
2017-06-06T11:00:51.710Z,99.99
2017-06-06T11:01:32.302Z,99.99
2017-06-06T11:02:12.847Z,99.99
2017-06-06T11:02:53.387Z,99.99
2017-06-06T11:03:33.932Z,99.99
2017-06-06T11:04:14.478Z,99.99
2017-06-06T11:04:55.027Z,99.99
2017-06-06T11:05:35.569Z,99.99
2017-06-06T11:06:16.107Z,99.99
2017-06-06T11:06:56.645Z,99.99
2017-06-06T11:07:37.182Z,99.99
2017-06-06T11:08:17.725Z,99.99
2017-06-06T11:08:58.265Z,99.99
2017-06-06T11:09:38.802Z,99.99
2017-06-06T11:10:19.346Z,99.99
2017-06-06T11:10:59.890Z,99.99
2017-06-06T11:11:40.443Z,99.99
2017-06-06T11:12:20.986Z,99.99
2017-06-06T11:13:01.508Z,99.99
2017-06-06T11:13:42.082Z,99.99
2017-06-06T11:14:22.672Z,99.99
2017-06-06T11:15:03.254Z,99.99
2017-06-06T11:15:43.788Z,99.99
2017-06-06T11:16:24.328Z,99.99
2017-06-06T11:17:04.867Z,99.99
2017-06-06T11:17:45.409Z,99.69
2017-06-06T11:18:25.945Z,98.44
2017-06-06T11:19:06.487Z,96.42
2017-06-06T11:19:47.024Z,93.33
2017-06-06T11:20:27.564Z,92.08
2017-06-06T11:21:08.090Z,90.83
2017-06-06T11:21:48.685Z,91.75
2017-06-06T11:22:29.178Z,92.23
2017-06-06T11:23:09.751Z,93
2017-06-06T11:23:50.344Z,92.43
2017-06-06T11:24:30.877Z,91.85
2017-06-06T11:25:11.442Z,91.42
2017-06-06T11:25:52.018Z,89.64
2017-06-06T11:26:32.660Z,89.06
2017-06-06T11:27:13.207Z,88.87
2017-06-06T11:27:53.753Z,89.73
2017-06-06T11:28:34.303Z,89.25